sensor_id;sensor_type;location;lat;lon;timestamp;pressure;altitude;pressure_sealevel;temperature;humidity
22775;BME280;11554;51.106;3.684;2022-11-11T00:00:00;102847.07;;;9.80;100.0
22775;BME280;11554;51.106;3.684;2022-11-11T00:05:00;102847.53;;;9.78;100.0
22775;BME280;11554;51.106;3.684;2022-11-11T00:10:00;102844.48;;;9.78;100.0
22775;BME280;11554;51.106;3.684;2022-11-11T00:15:00;102842.93000000001;;;9.77;100.0
22775;BME280;11554;51.106;3.684;2022-11-11T00:20:00;102844.63;;;9.77;100.0
22775;BME280;11554;51.106;3.684;2022-11-11T00:25:00;102849.45;;;9.77;100.0
22775;BME280;11554;51.106;3.684;2022-11-11T00:30:00;102855.24;;;9.77;100.0
22775;BME280;11554;51.106;3.684;2022-11-11T00:35:00;102855.26;;;9.77;100.0
22775;BME280;11554;51.106;3.684;2022-11-11T00:40:00;102842.74;;;9.76;100.0
22775;BME280;11554;51.106;3.684;2022-11-11T00:45:00;102835.51;;;9.75;100.0
22775;BME280;11554;51.106;3.684;2022-11-11T00:50:00;102830.37;;;9.75;100.0
22775;BME280;11554;51.106;3.684;2022-11-11T00:55:00;102830.25;;;9.74;100.0
22775;BME280;11554;51.106;3.684;2022-11-11T01:00:00;102833.82999999999;;;9.73;100.0
22775;BME280;11554;51.106;3.684;2022-11-11T01:05:00;102837.29000000001;;;9.72;100.0
22775;BME280;11554;51.106;3.684;2022-11-11T01:10:00;102841.3;;;9.71;100.0
22775;BME280;11554;51.106;3.684;2022-11-11T01:15:00;102840.94;;;9.71;100.0
22775;BME280;11554;51.106;3.684;2022-11-11T01:20:00;102846.12999999999;;;9.70;100.0
22775;BME280;11554;51.106;3.684;2022-11-11T01:25:00;102856.81;;;9.70;100.0
22775;BME280;11554;51.106;3.684;2022-11-11T01:30:00;102853.37;;;9.69;100.0
22775;BME280;11554;51.106;3.684;2022-11-11T01:35:00;102853.27;;;9.68;100.0
22775;BME280;11554;51.106;3.684;2022-11-11T01:40:00;102857.6;;;9.66;100.0
22775;BME280;11554;51.106;3.684;2022-11-11T01:45:00;102853.06;;;9.64;100.0
22775;BME280;11554;51.106;3.684;2022-11-11T01:50:00;102852.38999999998;;;9.64;100.0
22775;BME280;11554;51.106;3.684;2022-11-11T01:55:00;102846.23999999999;;;9.63;100.0
22775;BME280;11554;51.106;3.684;2022-11-11T02:00:00;102838.83;;;9.60;100.0
22775;BME280;11554;51.106;3.684;2022-11-11T02:05:00;102833.24;;;9.58;100.0
22775;BME280;11554;51.106;3.684;2022-11-11T02:10:00;102829.82999999999;;;9.56;100.0
22775;BME280;11554;51.106;3.684;2022-11-11T02:15:00;102822.36;;;9.52;100.0
22775;BME280;11554;51.106;3.684;2022-11-11T02:20:00;102818.64;;;9.50;100.0
22775;BME280;11554;51.106;3.684;2022-11-11T02:25:00;102820.90000000001;;;9.47;100.0
22775;BME280;11554;51.106;3.684;2022-11-11T02:30:00;102808.06;;;9.45;100.0
22775;BME280;11554;51.106;3.684;2022-11-11T02:35:00;102810.69;;;9.43;100.0
22775;BME280;11554;51.106;3.684;2022-11-11T02:40:00;102808.53;;;9.42;100.0
22775;BME280;11554;51.106;3.684;2022-11-11T02:45:00;102803.31000000001;;;9.39;100.0
22775;BME280;11554;51.106;3.684;2022-11-11T02:50:00;102799.71;;;9.36;100.0
22775;BME280;11554;51.106;3.684;2022-11-11T02:55:00;102804.64;;;9.32;100.0
22775;BME280;11554;51.106;3.684;2022-11-11T03:00:00;102807.15;;;9.31;100.0
22775;BME280;11554;51.106;3.684;2022-11-11T03:05:00;102811.40000000001;;;9.29;100.0
22775;BME280;11554;51.106;3.684;2022-11-11T03:10:00;102810.21;;;9.28;100.0
22775;BME280;11554;51.106;3.684;2022-11-11T03:15:00;102815.59999999999;;;9.23;100.0
22775;BME280;11554;51.106;3.684;2022-11-11T03:20:00;102820.87;;;9.19;100.0
22775;BME280;11554;51.106;3.684;2022-11-11T03:25:00;102826.71;;;9.15;100.0
22775;BME280;11554;51.106;3.684;2022-11-11T03:30:00;102823.43000000001;;;9.12;100.0
22775;BME280;11554;51.106;3.684;2022-11-11T03:35:00;102829.33;;;9.11;100.0
22775;BME280;11554;51.106;3.684;2022-11-11T03:40:00;102825.29;;;9.10;100.0
22775;BME280;11554;51.106;3.684;2022-11-11T03:45:00;102829.35;;;9.09;100.0
22775;BME280;11554;51.106;3.684;2022-11-11T03:50:00;102828.73999999999;;;9.07;100.0
22775;BME280;11554;51.106;3.684;2022-11-11T03:55:00;102831.97;;;9.05;100.0
22775;BME280;11554;51.106;3.684;2022-11-11T04:00:00;102839.88999999998;;;9.02;100.0
22775;BME280;11554;51.106;3.684;2022-11-11T04:05:00;102837.29000000001;;;9.01;100.0
22775;BME280;11554;51.106;3.684;2022-11-11T04:10:00;102835.43999999999;;;8.98;100.0
22775;BME280;11554;51.106;3.684;2022-11-11T04:15:00;102848.88;;;8.95;100.0
22775;BME280;11554;51.106;3.684;2022-11-11T04:20:00;102851.23000000001;;;8.93;100.0
22775;BME280;11554;51.106;3.684;2022-11-11T04:25:00;102851.84;;;8.91;100.0
22775;BME280;11554;51.106;3.684;2022-11-11T04:30:00;102838.04000000001;;;8.90;100.0
22775;BME280;11554;51.106;3.684;2022-11-11T04:35:00;102834.3;;;8.89;100.0
22775;BME280;11554;51.106;3.684;2022-11-11T04:40:00;102836.39;;;8.85;100.0
22775;BME280;11554;51.106;3.684;2022-11-11T04:45:00;102846.06000000001;;;8.84;100.0
22775;BME280;11554;51.106;3.684;2022-11-11T04:50:00;102847.36;;;8.81;100.0
22775;BME280;11554;51.106;3.684;2022-11-11T04:55:00;102837.1;;;8.79;100.0
22775;BME280;11554;51.106;3.684;2022-11-11T05:00:00;102842.19;;;8.76;100.0
22775;BME280;11554;51.106;3.684;2022-11-11T05:05:00;102843.59999999999;;;8.74;100.0
22775;BME280;11554;51.106;3.684;2022-11-11T05:10:00;102842.95999999999;;;8.74;100.0
22775;BME280;11554;51.106;3.684;2022-11-11T05:15:00;102854.2;;;8.74;100.0
22775;BME280;11554;51.106;3.684;2022-11-11T05:20:00;102847.57999999999;;;8.73;100.0
22775;BME280;11554;51.106;3.684;2022-11-11T05:25:00;102853.37;;;8.72;100.0
22775;BME280;11554;51.106;3.684;2022-11-11T05:30:00;102849.89;;;8.72;100.0
22775;BME280;11554;51.106;3.684;2022-11-11T05:35:00;102855.52;;;8.71;100.0
22775;BME280;11554;51.106;3.684;2022-11-11T05:40:00;102850.93999999999;;;8.70;100.0
22775;BME280;11554;51.106;3.684;2022-11-11T05:45:00;102852.72;;;8.69;100.0
22775;BME280;11554;51.106;3.684;2022-11-11T05:50:00;102862.54;;;8.70;100.0
22775;BME280;11554;51.106;3.684;2022-11-11T05:55:00;102874.0;;;8.69;100.0
22775;BME280;11554;51.106;3.684;2022-11-11T06:00:00;102875.84;;;8.69;100.0
22775;BME280;11554;51.106;3.684;2022-11-11T06:05:00;102876.20999999999;;;8.67;100.0
22775;BME280;11554;51.106;3.684;2022-11-11T06:10:00;102874.82;;;8.65;100.0
22775;BME280;11554;51.106;3.684;2022-11-11T06:15:00;102874.01;;;8.63;100.0
22775;BME280;11554;51.106;3.684;2022-11-11T06:20:00;102877.12;;;8.63;100.0
22775;BME280;11554;51.106;3.684;2022-11-11T06:25:00;102886.35999999999;;;8.62;100.0
22775;BME280;11554;51.106;3.684;2022-11-11T06:30:00;102892.76999999999;;;8.61;100.0
22775;BME280;11554;51.106;3.684;2022-11-11T06:35:00;102905.04000000001;;;8.61;100.0
22775;BME280;11554;51.106;3.684;2022-11-11T06:40:00;102899.51000000001;;;8.61;100.0
22775;BME280;11554;51.106;3.684;2022-11-11T06:45:00;102908.62999999999;;;8.61;100.0
22775;BME280;11554;51.106;3.684;2022-11-11T06:50:00;102916.39;;;8.61;100.0
22775;BME280;11554;51.106;3.684;2022-11-11T06:55:00;102919.31999999999;;;8.61;100.0
22775;BME280;11554;51.106;3.684;2022-11-11T07:00:00;102917.90000000001;;;8.60;100.0
22775;BME280;11554;51.106;3.684;2022-11-11T07:05:00;102927.74999999999;;;8.59;100.0
22775;BME280;11554;51.106;3.684;2022-11-11T07:10:00;102929.33;;;8.58;100.0
22775;BME280;11554;51.106;3.684;2022-11-11T07:15:00;102935.38;;;8.59;100.0
22775;BME280;11554;51.106;3.684;2022-11-11T07:20:00;102944.41999999998;;;8.57;100.0
22775;BME280;11554;51.106;3.684;2022-11-11T07:25:00;102947.12;;;8.55;100.0
22775;BME280;11554;51.106;3.684;2022-11-11T07:30:00;102944.8;;;8.58;100.0
22775;BME280;11554;51.106;3.684;2022-11-11T07:35:00;102945.77999999998;;;8.57;100.0
22775;BME280;11554;51.106;3.684;2022-11-11T07:40:00;102946.09;;;8.59;100.0
22775;BME280;11554;51.106;3.684;2022-11-11T07:45:00;102949.45999999999;;;8.59;100.0
22775;BME280;11554;51.106;3.684;2022-11-11T07:50:00;102947.8;;;8.56;100.0
22775;BME280;11554;51.106;3.684;2022-11-11T07:55:00;102949.49999999999;;;8.58;100.0
22775;BME280;11554;51.106;3.684;2022-11-11T08:00:00;102952.37999999999;;;8.63;100.0
22775;BME280;11554;51.106;3.684;2022-11-11T08:05:00;102952.48;;;8.64;100.0
22775;BME280;11554;51.106;3.684;2022-11-11T08:10:00;102956.62999999999;;;8.71;100.0
22775;BME280;11554;51.106;3.684;2022-11-11T08:15:00;102961.49;;;8.79;100.0
22775;BME280;11554;51.106;3.684;2022-11-11T08:20:00;102964.25;;;8.86;100.0
22775;BME280;11554;51.106;3.684;2022-11-11T08:25:00;102966.41;;;8.94;100.0
22775;BME280;11554;51.106;3.684;2022-11-11T08:30:00;102969.75;;;8.96;100.0
22775;BME280;11554;51.106;3.684;2022-11-11T08:35:00;102973.27;;;9.05;100.0
22775;BME280;11554;51.106;3.684;2022-11-11T08:40:00;102976.09999999999;;;9.10;100.0
22775;BME280;11554;51.106;3.684;2022-11-11T08:45:00;102980.65;;;9.08;100.0
22775;BME280;11554;51.106;3.684;2022-11-11T08:50:00;102983.31000000001;;;9.09;100.0
22775;BME280;11554;51.106;3.684;2022-11-11T08:55:00;102986.47;;;9.12;100.0
22775;BME280;11554;51.106;3.684;2022-11-11T09:00:00;102992.35;;;9.14;100.0
22775;BME280;11554;51.106;3.684;2022-11-11T09:05:00;102996.15;;;9.17;100.0
22775;BME280;11554;51.106;3.684;2022-11-11T09:10:00;102997.42000000001;;;9.33;100.0
22775;BME280;11554;51.106;3.684;2022-11-11T09:15:00;103002.61;;;9.52;100.0
22775;BME280;11554;51.106;3.684;2022-11-11T09:20:00;103000.88;;;9.65;100.0
22775;BME280;11554;51.106;3.684;2022-11-11T09:25:00;103010.34;;;9.62;100.0
22775;BME280;11554;51.106;3.684;2022-11-11T09:30:00;103018.08000000002;;;9.64;100.0
22775;BME280;11554;51.106;3.684;2022-11-11T09:35:00;103013.64000000001;;;9.65;100.0
22775;BME280;11554;51.106;3.684;2022-11-11T09:40:00;103022.35;;;9.74;100.0
22775;BME280;11554;51.106;3.684;2022-11-11T09:45:12;103024.39;;;9.89;100.0
22775;BME280;11554;51.106;3.684;2022-11-11T09:50:00;103026.05;;;9.95;100.0
22775;BME280;11554;51.106;3.684;2022-11-11T09:55:01;103017.02;;;10.08;100.0
22775;BME280;11554;51.106;3.684;2022-11-11T10:00:00;103024.17;;;10.14;100.0
22775;BME280;11554;51.106;3.684;2022-11-11T10:05:02;103019.18000000001;;;10.20;100.0
22775;BME280;11554;51.106;3.684;2022-11-11T10:10:03;103022.57999999999;;;10.31;100.0
22775;BME280;11554;51.106;3.684;2022-11-11T10:15:00;103032.32;;;10.50;100.0
22775;BME280;11554;51.106;3.684;2022-11-11T10:20:02;103034.16;;;10.60;100.0
22775;BME280;11554;51.106;3.684;2022-11-11T10:25:06;103038.95999999999;;;10.76;100.0
22775;BME280;11554;51.106;3.684;2022-11-11T10:30:00;103038.94;;;10.96;100.0
22775;BME280;11554;51.106;3.684;2022-11-11T10:35:04;103030.15000000001;;;10.85;100.0
22775;BME280;11554;51.106;3.684;2022-11-11T10:40:01;103028.78;;;10.92;100.0
22775;BME280;11554;51.106;3.684;2022-11-11T10:45:00;103021.40999999999;;;11.28;100.0
22775;BME280;11554;51.106;3.684;2022-11-11T10:50:01;103018.54000000001;;;11.67;100.0
22775;BME280;11554;51.106;3.684;2022-11-11T10:55:00;103020.47;;;11.93;100.0
22775;BME280;11554;51.106;3.684;2022-11-11T11:00:01;103015.81000000001;;;12.18;100.0
22775;BME280;11554;51.106;3.684;2022-11-11T11:05:00;103015.38;;;12.32;100.0
22775;BME280;11554;51.106;3.684;2022-11-11T11:10:00;103009.89;;;12.47;100.0
22775;BME280;11554;51.106;3.684;2022-11-11T11:15:02;103006.13;;;12.46;100.0
22775;BME280;11554;51.106;3.684;2022-11-11T11:20:09;103000.96;;;12.53;100.0
22775;BME280;11554;51.106;3.684;2022-11-11T11:25:07;102998.67;;;12.73;100.0
22775;BME280;11554;51.106;3.684;2022-11-11T11:30:01;102992.35;;;12.74;100.0
22775;BME280;11554;51.106;3.684;2022-11-11T11:35:00;102979.42;;;12.46;100.0
22775;BME280;11554;51.106;3.684;2022-11-11T11:40:00;102985.39000000001;;;12.44;100.0
22775;BME280;11554;51.106;3.684;2022-11-11T11:50:06;102986.43;;;12.54;99.54
22775;BME280;11554;51.106;3.684;2022-11-11T11:55:00;102989.16999999998;;;12.79;99.64
22775;BME280;11554;51.106;3.684;2022-11-11T12:00:01;102986.77;;;12.93;98.57
22775;BME280;11554;51.106;3.684;2022-11-11T12:05:01;102978.17;;;12.95;97.83
22775;BME280;11554;51.106;3.684;2022-11-11T12:10:02;102974.94999999998;;;12.99;98.83
22775;BME280;11554;51.106;3.684;2022-11-11T12:15:03;102972.83;;;12.80;97.67
22775;BME280;11554;51.106;3.684;2022-11-11T12:20:02;102968.51;;;12.73;97.02
22775;BME280;11554;51.106;3.684;2022-11-11T12:25:01;102964.84;;;12.91;98.73
22775;BME280;11554;51.106;3.684;2022-11-11T12:30:02;102965.34;;;12.80;97.27
22775;BME280;11554;51.106;3.684;2022-11-11T12:40:03;102955.76000000001;;;12.79;98.56
22775;BME280;11554;51.106;3.684;2022-11-11T12:45:01;102949.4;;;13.00;97.69
22775;BME280;11554;51.106;3.684;2022-11-11T12:50:03;102952.61;;;13.00;97.87
22775;BME280;11554;51.106;3.684;2022-11-11T12:55:04;102941.74;;;13.04;97.9
22775;BME280;11554;51.106;3.684;2022-11-11T13:00:03;102942.31;;;13.22;97.49
22775;BME280;11554;51.106;3.684;2022-11-11T13:05:02;102936.45;;;13.35;97.34
22775;BME280;11554;51.106;3.684;2022-11-11T13:10:02;102933.08;;;13.37;97.02
22775;BME280;11554;51.106;3.684;2022-11-11T13:15:02;102933.94;;;13.43;96.94
22775;BME280;11554;51.106;3.684;2022-11-11T13:20:00;102929.77;;;13.37;96.5
22775;BME280;11554;51.106;3.684;2022-11-11T13:25:01;102932.93000000001;;;13.32;96.42
22775;BME280;11554;51.106;3.684;2022-11-11T13:30:04;102931.91999999998;;;13.15;96.41
22775;BME280;11554;51.106;3.684;2022-11-11T13:35:00;102929.63;;;12.95;95.48
22775;BME280;11554;51.106;3.684;2022-11-11T13:40:01;102925.50000000001;;;12.93;96.47
22775;BME280;11554;51.106;3.684;2022-11-11T13:45:00;102925.27;;;12.84;95.3
22775;BME280;11554;51.106;3.684;2022-11-11T13:50:01;102928.64;;;12.84;96.88
22775;BME280;11554;51.106;3.684;2022-11-11T13:55:00;102927.65999999999;;;12.82;96.72
22775;BME280;11554;51.106;3.684;2022-11-11T14:00:00;102926.66999999998;;;12.71;96.82
22775;BME280;11554;51.106;3.684;2022-11-11T14:10:00;102921.51;;;12.55;97.2
22775;BME280;11554;51.106;3.684;2022-11-11T14:15:00;102919.23999999999;;;12.50;97.72
22775;BME280;11554;51.106;3.684;2022-11-11T14:30:00;102911.99999999999;;;12.30;98.98
22775;BME280;11554;51.106;3.684;2022-11-11T14:35:03;102911.49;;;12.24;99.59
22775;BME280;11554;51.106;3.684;2022-11-11T14:40:00;102907.75000000001;;;12.16;100.0
22775;BME280;11554;51.106;3.684;2022-11-11T14:45:00;102909.79;;;12.08;100.0
22775;BME280;11554;51.106;3.684;2022-11-11T14:50:00;102910.84000000001;;;11.98;100.0
22775;BME280;11554;51.106;3.684;2022-11-11T14:55:03;102905.29;;;11.82;100.0
22775;BME280;11554;51.106;3.684;2022-11-11T15:00:00;102911.15999999999;;;11.70;100.0
22775;BME280;11554;51.106;3.684;2022-11-11T15:05:00;102906.43;;;11.61;100.0
22775;BME280;11554;51.106;3.684;2022-11-11T15:15:01;102914.64000000001;;;11.40;100.0
22775;BME280;11554;51.106;3.684;2022-11-11T15:20:02;102914.75;;;11.24;100.0
22775;BME280;11554;51.106;3.684;2022-11-11T15:25:01;102906.34999999999;;;11.06;100.0
22775;BME280;11554;51.106;3.684;2022-11-11T15:30:01;102918.15;;;10.88;100.0
22775;BME280;11554;51.106;3.684;2022-11-11T15:35:03;102918.12999999999;;;10.71;100.0
22775;BME280;11554;51.106;3.684;2022-11-11T15:40:00;102916.81000000001;;;10.52;100.0
22775;BME280;11554;51.106;3.684;2022-11-11T15:45:01;102916.55;;;10.34;100.0
22775;BME280;11554;51.106;3.684;2022-11-11T15:50:00;102916.00000000001;;;10.12;100.0
22775;BME280;11554;51.106;3.684;2022-11-11T15:55:01;102920.12999999999;;;9.99;100.0
22775;BME280;11554;51.106;3.684;2022-11-11T16:00:00;102922.03;;;9.84;100.0
22775;BME280;11554;51.106;3.684;2022-11-11T16:05:02;102931.69;;;9.64;100.0
22775;BME280;11554;51.106;3.684;2022-11-11T16:10:04;102930.79000000001;;;9.48;100.0
22775;BME280;11554;51.106;3.684;2022-11-11T16:15:00;102932.78;;;9.37;100.0
22775;BME280;11554;51.106;3.684;2022-11-11T16:20:00;102932.18;;;9.28;100.0
22775;BME280;11554;51.106;3.684;2022-11-11T16:25:00;102931.91999999998;;;9.08;100.0
22775;BME280;11554;51.106;3.684;2022-11-11T16:35:00;102927.66999999998;;;8.72;100.0
22775;BME280;11554;51.106;3.684;2022-11-11T16:45:00;102937.12000000001;;;8.36;100.0
22775;BME280;11554;51.106;3.684;2022-11-11T16:50:00;102941.32999999999;;;8.24;100.0
22775;BME280;11554;51.106;3.684;2022-11-11T16:55:00;102945.92;;;8.12;100.0
22775;BME280;11554;51.106;3.684;2022-11-11T17:00:00;102953.02999999998;;;7.90;100.0
22775;BME280;11554;51.106;3.684;2022-11-11T17:05:00;102957.86;;;7.73;100.0
22775;BME280;11554;51.106;3.684;2022-11-11T17:10:11;102956.18;;;7.50;100.0
22775;BME280;11554;51.106;3.684;2022-11-11T17:15:00;102961.76000000001;;;7.41;100.0
22775;BME280;11554;51.106;3.684;2022-11-11T17:20:00;102965.11;;;7.52;100.0
22775;BME280;11554;51.106;3.684;2022-11-11T17:25:00;102953.12;;;7.55;100.0
22775;BME280;11554;51.106;3.684;2022-11-11T17:30:00;102952.74999999999;;;7.52;100.0
22775;BME280;11554;51.106;3.684;2022-11-11T17:35:00;102955.46999999999;;;7.47;100.0
22775;BME280;11554;51.106;3.684;2022-11-11T17:40:00;102959.03000000001;;;7.60;100.0
22775;BME280;11554;51.106;3.684;2022-11-11T17:45:00;102962.95999999999;;;7.57;100.0
22775;BME280;11554;51.106;3.684;2022-11-11T17:50:00;102961.85;;;7.66;100.0
22775;BME280;11554;51.106;3.684;2022-11-11T17:55:00;102969.59;;;7.69;100.0
22775;BME280;11554;51.106;3.684;2022-11-11T18:00:00;102968.18000000001;;;7.78;100.0
22775;BME280;11554;51.106;3.684;2022-11-11T18:05:00;102973.47;;;7.78;100.0
22775;BME280;11554;51.106;3.684;2022-11-11T18:10:00;102975.48999999999;;;7.70;100.0
22775;BME280;11554;51.106;3.684;2022-11-11T18:15:00;102976.56999999999;;;7.78;100.0
22775;BME280;11554;51.106;3.684;2022-11-11T18:20:00;102977.25;;;7.80;100.0
22775;BME280;11554;51.106;3.684;2022-11-11T18:25:00;102977.36;;;7.85;100.0
22775;BME280;11554;51.106;3.684;2022-11-11T18:30:00;102981.08;;;7.81;100.0
22775;BME280;11554;51.106;3.684;2022-11-11T18:35:00;102975.35;;;7.80;100.0
22775;BME280;11554;51.106;3.684;2022-11-11T18:40:00;102974.73999999999;;;7.73;100.0
22775;BME280;11554;51.106;3.684;2022-11-11T18:45:00;102974.40999999999;;;7.73;100.0
22775;BME280;11554;51.106;3.684;2022-11-11T18:50:00;102976.79000000001;;;7.94;100.0
22775;BME280;11554;51.106;3.684;2022-11-11T18:55:00;102978.46999999999;;;8.02;100.0
22775;BME280;11554;51.106;3.684;2022-11-11T19:00:00;102982.19999999998;;;7.91;100.0
22775;BME280;11554;51.106;3.684;2022-11-11T19:05:00;102970.87;;;7.84;100.0
22775;BME280;11554;51.106;3.684;2022-11-11T19:10:00;102975.33;;;7.79;100.0
22775;BME280;11554;51.106;3.684;2022-11-11T19:15:00;102980.87000000001;;;7.67;100.0
22775;BME280;11554;51.106;3.684;2022-11-11T19:20:00;102982.6;;;7.60;100.0
22775;BME280;11554;51.106;3.684;2022-11-11T19:25:00;102986.29000000001;;;7.52;100.0
22775;BME280;11554;51.106;3.684;2022-11-11T19:30:00;102992.63;;;7.42;100.0
22775;BME280;11554;51.106;3.684;2022-11-11T19:35:00;102994.36;;;7.32;100.0
22775;BME280;11554;51.106;3.684;2022-11-11T19:40:00;102996.06000000001;;;7.24;100.0
22775;BME280;11554;51.106;3.684;2022-11-11T19:45:00;102995.56;;;7.19;100.0
22775;BME280;11554;51.106;3.684;2022-11-11T19:50:00;103010.16;;;7.07;100.0
22775;BME280;11554;51.106;3.684;2022-11-11T19:55:00;103015.75;;;7.05;100.0
22775;BME280;11554;51.106;3.684;2022-11-11T20:00:00;103012.93000000001;;;7.01;100.0
22775;BME280;11554;51.106;3.684;2022-11-11T20:05:00;103009.34;;;7.05;100.0
22775;BME280;11554;51.106;3.684;2022-11-11T20:10:00;103006.36;;;7.04;100.0
22775;BME280;11554;51.106;3.684;2022-11-11T20:15:00;103016.88999999998;;;7.04;100.0
22775;BME280;11554;51.106;3.684;2022-11-11T20:20:00;103023.63;;;6.94;100.0
22775;BME280;11554;51.106;3.684;2022-11-11T20:25:00;103026.84;;;6.92;100.0
22775;BME280;11554;51.106;3.684;2022-11-11T20:30:00;103035.70999999999;;;6.85;100.0
22775;BME280;11554;51.106;3.684;2022-11-11T20:35:00;103042.2;;;6.88;100.0
22775;BME280;11554;51.106;3.684;2022-11-11T20:40:00;103054.02999999998;;;6.91;100.0
22775;BME280;11554;51.106;3.684;2022-11-11T20:45:00;103039.94;;;6.82;100.0
22775;BME280;11554;51.106;3.684;2022-11-11T20:50:00;103046.4;;;6.80;100.0
22775;BME280;11554;51.106;3.684;2022-11-11T20:55:00;103053.52;;;6.81;100.0
22775;BME280;11554;51.106;3.684;2022-11-11T21:00:00;103058.84000000001;;;6.80;100.0
22775;BME280;11554;51.106;3.684;2022-11-11T21:05:00;103063.70999999999;;;6.70;100.0
22775;BME280;11554;51.106;3.684;2022-11-11T21:10:00;103062.77;;;6.55;100.0
22775;BME280;11554;51.106;3.684;2022-11-11T21:15:00;103067.90000000001;;;6.45;100.0
22775;BME280;11554;51.106;3.684;2022-11-11T21:20:00;103072.56;;;6.41;100.0
22775;BME280;11554;51.106;3.684;2022-11-11T21:25:00;103067.42;;;6.45;100.0
22775;BME280;11554;51.106;3.684;2022-11-11T21:30:00;103066.31;;;6.52;100.0
22775;BME280;11554;51.106;3.684;2022-11-11T21:35:00;103073.01999999999;;;6.48;100.0
22775;BME280;11554;51.106;3.684;2022-11-11T21:40:00;103075.11;;;6.47;100.0
22775;BME280;11554;51.106;3.684;2022-11-11T21:45:00;103063.55;;;6.37;100.0
22775;BME280;11554;51.106;3.684;2022-11-11T21:50:00;103065.66;;;6.31;100.0
22775;BME280;11554;51.106;3.684;2022-11-11T21:55:00;103063.84000000001;;;6.23;100.0
22775;BME280;11554;51.106;3.684;2022-11-11T22:00:00;103061.61;;;6.24;100.0
22775;BME280;11554;51.106;3.684;2022-11-11T22:05:00;103067.63;;;6.28;100.0
22775;BME280;11554;51.106;3.684;2022-11-11T22:10:00;103067.3;;;6.15;100.0
22775;BME280;11554;51.106;3.684;2022-11-11T22:15:00;103074.51000000001;;;6.12;100.0
22775;BME280;11554;51.106;3.684;2022-11-11T22:20:00;103079.94000000002;;;6.11;100.0
22775;BME280;11554;51.106;3.684;2022-11-11T22:25:00;103063.15999999999;;;6.01;100.0
22775;BME280;11554;51.106;3.684;2022-11-11T22:30:00;103060.34;;;5.90;100.0
22775;BME280;11554;51.106;3.684;2022-11-11T22:35:00;103069.23999999999;;;5.96;100.0
22775;BME280;11554;51.106;3.684;2022-11-11T22:40:00;103054.48;;;5.94;100.0
22775;BME280;11554;51.106;3.684;2022-11-11T22:45:00;103062.18;;;5.88;100.0
22775;BME280;11554;51.106;3.684;2022-11-11T22:50:00;103052.64;;;5.86;100.0
22775;BME280;11554;51.106;3.684;2022-11-11T22:55:00;103050.24;;;5.74;100.0
22775;BME280;11554;51.106;3.684;2022-11-11T23:00:00;103042.82;;;5.61;100.0
22775;BME280;11554;51.106;3.684;2022-11-11T23:05:00;103039.47;;;5.54;100.0
22775;BME280;11554;51.106;3.684;2022-11-11T23:10:00;103051.68000000001;;;5.37;100.0
22775;BME280;11554;51.106;3.684;2022-11-11T23:15:00;103049.16;;;5.18;100.0
22775;BME280;11554;51.106;3.684;2022-11-11T23:20:00;103053.76000000001;;;5.07;100.0
22775;BME280;11554;51.106;3.684;2022-11-11T23:25:00;103057.6;;;5.35;100.0
22775;BME280;11554;51.106;3.684;2022-11-11T23:30:00;103058.24;;;5.31;100.0
22775;BME280;11554;51.106;3.684;2022-11-11T23:35:00;103062.93000000001;;;5.31;100.0
22775;BME280;11554;51.106;3.684;2022-11-11T23:40:00;103058.84000000001;;;5.40;100.0
22775;BME280;11554;51.106;3.684;2022-11-11T23:45:00;103055.93;;;5.61;100.0
22775;BME280;11554;51.106;3.684;2022-11-11T23:50:00;103048.85999999999;;;5.56;100.0
22775;BME280;11554;51.106;3.684;2022-11-11T23:55:00;103055.09999999999;;;5.53;100.0
